Time;durP1;ratioP1;P1;durP2;ratioP2;P2;SDS_P1;SDS_P2;PMS_P1;PMS_P2;Temp;Humidity;BMP_temperature;BMP_pressure;BME280_temperature;BME280_humidity;BME280_pressure;Samples;Min_cycle;Max_cycle;Signal;HPM_P1;HPM_P2
2023/01/26 00:00:59;;;;;;;63.53;26.15;;;2.80;99.90;;;;;;5119059;28;20078;-76
2023/01/26 00:03:25;;;;;;;57.80;25.60;;;2.70;99.90;;;;;;5118840;28;20040;-76
2023/01/26 00:05:51;;;;;;;57.20;25.42;;;2.60;99.90;;;;;;5118754;28;20054;-76
2023/01/26 00:08:17;;;;;;;69.38;26.85;;;2.70;99.90;;;;;;5118853;28;20040;-76
2023/01/26 00:10:49;;;;;;;49.38;26.52;;;2.70;99.90;;;;;;5119337;27;20049;-76
2023/01/26 00:13:21;;;;;;;40.55;23.70;;;2.70;99.90;;;;;;5118854;28;20036;-76
2023/01/26 00:15:47;;;;;;;61.55;26.08;;;2.70;99.90;;;;;;5118045;28;20077;-76
2023/01/26 00:18:13;;;;;;;60.42;26.77;;;2.70;99.90;;;;;;5118433;28;20065;-76
2023/01/26 00:20:39;;;;;;;55.35;26.10;;;2.70;99.90;;;;;;5118414;28;20039;-76
2023/01/26 00:23:04;;;;;;;64.65;27.95;;;2.80;99.90;;;;;;5118543;28;20427;-76
2023/01/26 00:25:30;;;;;;;74.93;26.98;;;2.80;99.90;;;;;;5117599;28;20047;-76
2023/01/26 00:27:56;;;;;;;67.50;27.73;;;2.60;99.90;;;;;;5118121;28;20048;-76
2023/01/26 00:30:22;;;;;;;73.60;28.55;;;2.50;99.90;;;;;;5117886;28;20092;-76
2023/01/26 00:32:48;;;;;;;63.53;28.05;;;2.40;99.90;;;;;;5118179;28;20039;-76
2023/01/26 00:35:14;;;;;;;78.75;27.85;;;2.40;99.90;;;;;;5117730;28;20058;-76
2023/01/26 00:37:42;;;;;;;71.38;26.63;;;2.40;99.90;;;;;;5118080;27;20085;-76
2023/01/26 00:40:09;;;;;;;65.28;26.90;;;2.40;99.90;;;;;;5117772;28;20077;-76
2023/01/26 00:42:35;;;;;;;73.97;27.10;;;2.40;99.90;;;;;;5117403;28;20035;-76
2023/01/26 00:45:00;;;;;;;88.25;28.50;;;2.40;99.90;;;;;;5117523;28;20046;-76
2023/01/26 00:47:26;;;;;;;73.93;27.75;;;2.40;99.90;;;;;;5116888;28;20075;-76
2023/01/26 00:49:52;;;;;;;64.38;25.98;;;2.40;99.90;;;;;;5118008;28;20050;-76
2023/01/26 00:52:17;;;;;;;74.50;28.17;;;2.30;99.90;;;;;;5116441;28;20036;-76
2023/01/26 00:54:43;;;;;;;66.88;28.75;;;2.40;99.90;;;;;;5117437;28;20046;-76
2023/01/26 00:57:09;;;;;;;81.53;28.80;;;2.50;99.90;;;;;;5117655;28;20118;-76
2023/01/26 00:59:34;;;;;;;91.65;30.13;;;2.50;99.90;;;;;;5117893;28;20031;-76
2023/01/26 01:02:01;;;;;;;81.00;30.95;;;2.60;99.90;;;;;;5117808;28;20040;-76
2023/01/26 01:04:31;;;;;;;81.05;29.70;;;2.60;99.90;;;;;;5117651;28;20050;-76
2023/01/26 01:06:57;;;;;;;76.68;29.55;;;2.70;99.90;;;;;;5116554;28;20348;-76
2023/01/26 01:09:23;;;;;;;86.88;29.45;;;2.50;99.90;;;;;;5117644;28;20036;-76
2023/01/26 01:11:49;;;;;;;85.68;29.55;;;2.50;99.90;;;;;;5116413;28;20058;-76
2023/01/26 01:14:15;;;;;;;85.90;30.38;;;2.40;99.90;;;;;;5117441;28;20040;-76
2023/01/26 01:16:41;;;;;;;80.13;28.65;;;2.30;99.90;;;;;;5117899;28;20039;-76
2023/01/26 01:19:10;;;;;;;60.95;27.55;;;2.30;99.90;;;;;;5118117;28;20089;-76
2023/01/26 01:21:35;;;;;;;78.18;27.67;;;2.30;99.90;;;;;;5117765;28;20322;-76
2023/01/26 01:24:02;;;;;;;84.68;30.73;;;2.50;99.90;;;;;;5117333;28;20193;-76
2023/01/26 01:26:27;;;;;;;67.82;28.90;;;2.60;99.90;;;;;;5117539;28;20082;-76
2023/01/26 01:28:54;;;;;;;79.93;29.92;;;2.50;99.90;;;;;;5119797;28;20075;-76
2023/01/26 01:31:21;;;;;;;63.90;28.13;;;2.40;99.90;;;;;;5121556;28;20051;-75
2023/01/26 01:33:46;;;;;;;86.28;29.20;;;2.20;99.90;;;;;;5120837;28;20118;-76
2023/01/26 01:36:14;;;;;;;73.55;28.52;;;2.30;99.90;;;;;;5121454;28;20086;-76
2023/01/26 01:38:41;;;;;;;79.15;30.30;;;2.40;99.90;;;;;;5121472;28;20047;-76
2023/01/26 01:41:07;;;;;;;83.63;30.65;;;2.60;99.90;;;;;;5121242;28;20092;-76
2023/01/26 01:43:34;;;;;;;71.50;28.02;;;2.50;99.90;;;;;;5121562;27;20047;-76
2023/01/26 01:46:02;;;;;;;71.10;27.85;;;2.00;99.90;;;;;;5120068;28;20047;-76
2023/01/26 01:48:46;;;;;;;63.60;26.83;;;1.90;99.90;;;;;;5121565;28;20050;-76
2023/01/26 01:51:17;;;;;;;58.28;28.40;;;2.10;99.90;;;;;;5121488;28;20054;-76
2023/01/26 01:53:47;;;;;;;88.60;32.42;;;2.30;99.90;;;;;;5120247;28;20067;-76
2023/01/26 01:56:20;;;;;;;90.72;30.85;;;2.40;99.90;;;;;;5121421;28;20066;-76
2023/01/26 01:58:47;;;;;;;78.72;30.67;;;2.20;99.90;;;;;;5120670;27;20421;-76
2023/01/26 02:01:13;;;;;;;93.95;31.70;;;2.00;99.90;;;;;;5121414;28;20038;-76
2023/01/26 02:03:41;;;;;;;82.93;30.95;;;1.90;99.90;;;;;;5121457;28;20421;-76
2023/01/26 02:06:14;;;;;;;57.05;27.95;;;2.10;99.90;;;;;;5119824;28;20050;-76
2023/01/26 02:08:46;;;;;;;96.78;31.23;;;2.30;99.90;;;;;;5121073;28;20039;-76
2023/01/26 02:11:15;;;;;;;79.68;29.45;;;2.30;99.90;;;;;;5120993;28;20098;-75
2023/01/26 02:13:45;;;;;;;93.10;30.92;;;2.20;99.90;;;;;;5120893;28;20046;-76
2023/01/26 02:16:11;;;;;;;74.55;29.23;;;2.30;99.90;;;;;;5120809;28;20028;-76
2023/01/26 02:18:36;;;;;;;81.07;31.00;;;2.30;99.90;;;;;;5119621;28;20193;-76
2023/01/26 02:21:08;;;;;;;67.63;30.15;;;2.30;99.90;;;;;;5119455;28;20039;-77
2023/01/26 02:24:11;;;;;;;86.22;29.38;;;2.20;99.90;;;;;;5120643;28;20042;-76
2023/01/26 02:26:37;;;;;;;73.28;29.08;;;2.20;99.90;;;;;;5102669;28;20043;-76
2023/01/26 02:29:07;;;;;;;68.45;27.15;;;2.20;99.90;;;;;;5120293;28;20039;-76
2023/01/26 02:31:33;;;;;;;70.55;27.55;;;2.10;99.90;;;;;;5120686;28;20047;-76
2023/01/26 02:33:58;;;;;;;71.72;29.05;;;2.10;99.90;;;;;;5120737;28;20412;-76
2023/01/26 02:36:28;;;;;;;82.78;29.05;;;2.00;99.90;;;;;;5101310;28;20048;-76
2023/01/26 02:39:25;;;;;;;81.75;27.80;;;1.90;99.90;;;;;;5118782;28;20043;-76
2023/01/26 02:44:38;;;;;;;90.05;28.92;;;2.00;99.90;;;;;;5119331;28;20050;-76
2023/01/26 02:47:14;;;;;;;93.90;31.00;;;2.10;99.90;;;;;;5119011;28;20040;-76
2023/01/26 02:49:45;;;;;;;91.40;30.15;;;2.10;99.90;;;;;;5119089;28;20039;-76
2023/01/26 02:52:11;;;;;;;78.65;29.17;;;2.10;99.90;;;;;;5118672;28;20431;-76
2023/01/26 02:57:21;;;;;;;102.75;31.08;;;2.50;99.90;;;;;;5118520;28;20447;-76
2023/01/26 02:59:47;;;;;;;50.55;26.63;;;2.40;99.90;;;;;;5117678;28;20044;-76
2023/01/26 03:02:13;;;;;;;86.88;30.38;;;2.20;99.90;;;;;;5117703;28;20340;-76
2023/01/26 03:04:39;;;;;;;102.05;32.08;;;2.40;99.90;;;;;;5118745;28;20076;-76
2023/01/26 03:07:04;;;;;;;76.53;29.40;;;2.30;99.90;;;;;;5118880;28;20118;-76
2023/01/26 03:09:30;;;;;;;100.95;31.27;;;2.40;99.90;;;;;;5118583;28;20039;-76
2023/01/26 03:11:56;;;;;;;90.78;30.23;;;2.40;99.90;;;;;;5100631;28;20432;-76
2023/01/26 03:14:21;;;;;;;100.50;31.02;;;2.30;99.90;;;;;;5117684;28;20039;-78
2023/01/26 03:16:47;;;;;;;97.80;31.13;;;2.20;99.90;;;;;;5117103;28;20114;-76
2023/01/26 03:27:28;;;;;;;58.35;27.77;;;2.60;99.90;;;;;;5118487;28;20051;-76
2023/01/26 03:29:56;;;;;;;79.60;29.77;;;2.70;99.90;;;;;;5117477;28;20046;-76
2023/01/26 03:32:22;;;;;;;69.70;28.38;;;2.90;99.90;;;;;;5117535;28;20050;-76
2023/01/26 03:34:48;;;;;;;65.72;28.02;;;2.70;99.90;;;;;;5117759;28;20039;-76
2023/01/26 03:37:13;;;;;;;;;;;2.80;99.90;;;;;;5079801;28;1109955;-77
2023/01/26 03:56:20;;;;;;;92.20;31.88;;;2.90;99.90;;;;;;5118934;28;20035;-76
2023/01/26 03:58:55;;;;;;;83.07;30.92;;;2.90;99.90;;;;;;5118451;28;20035;-76
2023/01/26 04:01:26;;;;;;;92.60;29.88;;;2.70;99.90;;;;;;5118516;28;20043;-76
2023/01/26 04:09:26;;;;;;;58.20;27.63;;;2.70;99.90;;;;;;5118559;28;20055;-76
2023/01/26 04:11:51;;;;;;;97.30;30.50;;;2.70;99.90;;;;;;5117653;28;20224;-76
2023/01/26 04:22:42;;;;;;;84.70;29.48;;;2.70;99.90;;;;;;5118183;28;20104;-76
2023/01/26 04:25:09;;;;;;;83.68;29.65;;;2.70;99.90;;;;;;5118218;28;20046;-76
2023/01/26 04:27:35;;;;;;;87.88;30.60;;;2.60;99.90;;;;;;5117798;28;20425;-76
2023/01/26 04:30:02;;;;;;;92.50;28.98;;;2.80;99.90;;;;;;5117505;28;20093;-76
2023/01/26 04:32:28;;;;;;;112.38;30.63;;;2.80;99.90;;;;;;5118013;28;20035;-76
2023/01/26 04:34:54;;;;;;;104.93;30.85;;;2.80;99.90;;;;;;5118097;28;20114;-76
2023/01/26 04:37:20;;;;;;;80.80;28.90;;;2.80;99.90;;;;;;5116449;28;20102;-76
2023/01/26 04:39:46;;;;;;;109.00;31.27;;;2.80;99.90;;;;;;5118047;28;20092;-76
2023/01/26 04:42:11;;;;;;;118.40;33.30;;;2.80;99.90;;;;;;5118013;28;20039;-76
2023/01/26 04:44:37;;;;;;;91.85;30.30;;;2.80;99.90;;;;;;5116581;28;20031;-76
2023/01/26 04:47:03;;;;;;;70.20;26.75;;;2.70;99.90;;;;;;5117644;28;20427;-76
2023/01/26 04:49:28;;;;;;;104.95;30.42;;;2.60;99.90;;;;;;5117847;28;20452;-76
2023/01/26 04:51:54;;;;;;;88.38;29.92;;;2.80;99.90;;;;;;5116458;28;20078;-76
2023/01/26 04:54:20;;;;;;;62.75;29.10;;;3.00;99.90;;;;;;5116350;28;20040;-76
2023/01/26 04:56:45;;;;;;;47.78;26.15;;;3.00;99.90;;;;;;5117566;28;20046;-76
2023/01/26 04:59:11;;;;;;;57.33;28.52;;;3.10;99.90;;;;;;5116821;28;20418;-76
2023/01/26 05:01:37;;;;;;;51.22;27.80;;;3.20;99.90;;;;;;5117424;28;20040;-76
2023/01/26 05:04:04;;;;;;;51.53;27.63;;;3.40;99.90;;;;;;5116169;28;20043;-76
2023/01/26 05:06:30;;;;;;;49.17;26.67;;;3.40;99.90;;;;;;5117190;28;20046;-76
2023/01/26 05:08:56;;;;;;;56.10;28.10;;;3.60;99.90;;;;;;5117101;28;20036;-76
2023/01/26 05:11:22;;;;;;;53.00;28.75;;;3.70;99.90;;;;;;5116034;28;20048;-76
2023/01/26 05:13:48;;;;;;;79.10;30.88;;;3.80;99.90;;;;;;5117432;28;20031;-76
2023/01/26 05:16:15;;;;;;;52.40;27.77;;;3.80;99.90;;;;;;5117278;28;20078;-76
2023/01/26 05:18:40;;;;;;;104.05;31.17;;;3.80;99.90;;;;;;5117378;28;20036;-76
2023/01/26 05:21:07;;;;;;;62.03;27.70;;;3.90;99.90;;;;;;5117060;28;20058;-76
2023/01/26 05:23:32;;;;;;;80.72;28.85;;;3.70;99.90;;;;;;5117256;28;20046;-76
2023/01/26 05:25:58;;;;;;;98.78;30.75;;;3.70;99.90;;;;;;5115960;28;20126;-76
2023/01/26 05:28:24;;;;;;;50.15;25.75;;;3.70;99.90;;;;;;5116826;28;20046;-76
2023/01/26 05:30:49;;;;;;;61.25;27.38;;;3.70;99.90;;;;;;5115830;28;20412;-76
2023/01/26 05:33:20;;;;;;;50.08;26.55;;;3.80;99.90;;;;;;5117140;28;20328;-76
2023/01/26 05:35:47;;;;;;;55.95;26.77;;;3.90;99.90;;;;;;5116846;28;20064;-76
2023/01/26 05:38:13;;;;;;;47.22;25.10;;;4.00;99.90;;;;;;5116293;28;20093;-76
2023/01/26 05:40:38;;;;;;;48.42;26.67;;;4.00;99.90;;;;;;5098835;28;20428;-76
2023/01/26 05:43:04;;;;;;;76.88;28.50;;;4.10;99.90;;;;;;5117176;28;20145;-76
2023/01/26 05:45:30;;;;;;;41.55;25.08;;;4.10;99.90;;;;;;5117257;28;20118;-76
2023/01/26 05:47:55;;;;;;;49.63;25.80;;;4.10;99.90;;;;;;5117183;28;20047;-76
2023/01/26 05:50:21;;;;;;;52.60;26.75;;;4.20;99.90;;;;;;5098893;28;20086;-76
2023/01/26 05:52:47;;;;;;;51.60;26.15;;;4.20;99.90;;;;;;5116080;28;20036;-76
2023/01/26 05:55:13;;;;;;;84.22;28.80;;;4.20;99.90;;;;;;5117028;28;20097;-76
2023/01/26 05:57:39;;;;;;;55.53;29.42;;;4.30;99.90;;;;;;5117044;28;20110;-76
2023/01/26 06:00:05;;;;;;;44.53;22.85;;;4.30;99.90;;;;;;5116341;28;20337;-76
2023/01/26 06:02:31;;;;;;;69.47;35.10;;;4.20;99.90;;;;;;5116605;28;20039;-76
2023/01/26 06:04:57;;;;;;;50.60;25.05;;;4.30;99.90;;;;;;5116610;28;20093;-76
2023/01/26 06:07:22;;;;;;;92.00;32.42;;;4.20;99.90;;;;;;5098724;28;20043;-76
2023/01/26 06:09:48;;;;;;;51.70;23.55;;;4.30;99.90;;;;;;5115748;28;20039;-76
2023/01/26 06:12:16;;;;;;;39.40;22.33;;;4.30;99.90;;;;;;5116614;28;20043;-76
2023/01/26 06:14:42;;;;;;;41.75;22.70;;;4.20;99.90;;;;;;5119001;28;20043;-76
2023/01/26 06:17:08;;;;;;;34.85;20.48;;;4.20;99.90;;;;;;5119394;28;20043;-76
2023/01/26 06:19:34;;;;;;;47.17;21.80;;;4.20;99.90;;;;;;5120633;28;20169;-76
2023/01/26 06:22:00;;;;;;;38.78;19.42;;;4.10;99.90;;;;;;5120595;28;20040;-76
2023/01/26 06:24:26;;;;;;;51.97;20.92;;;4.20;99.90;;;;;;5119464;28;20059;-76
2023/01/26 06:26:52;;;;;;;59.45;22.70;;;4.10;99.90;;;;;;5120449;28;20057;-76
2023/01/26 06:29:17;;;;;;;38.40;20.25;;;4.00;99.90;;;;;;5119651;28;20042;-76
2023/01/26 06:31:43;;;;;;;70.57;22.63;;;4.00;99.90;;;;;;5120277;28;20046;-76
2023/01/26 06:34:09;;;;;;;65.50;22.40;;;4.10;99.90;;;;;;5101980;28;20065;-76
2023/01/26 06:36:35;;;;;;;54.80;21.65;;;4.10;99.90;;;;;;5119958;28;20051;-76
2023/01/26 06:39:01;;;;;;;36.60;19.67;;;4.10;99.90;;;;;;5118828;28;20043;-76
2023/01/26 06:41:27;;;;;;;48.78;21.88;;;4.10;99.90;;;;;;5120108;28;20043;-76
2023/01/26 06:43:53;;;;;;;87.80;25.77;;;4.10;99.90;;;;;;5118724;28;20039;-76
2023/01/26 06:46:19;;;;;;;66.65;22.55;;;4.20;99.90;;;;;;5119819;28;20043;-76
2023/01/26 06:48:45;;;;;;;74.50;23.77;;;4.00;99.90;;;;;;5119619;28;20123;-76
2023/01/26 06:51:19;;;;;;;83.60;25.52;;;3.90;99.90;;;;;;5119530;28;20040;-76
2023/01/26 06:53:56;;;;;;;38.97;19.67;;;3.80;99.90;;;;;;5119807;28;20071;-76
2023/01/26 06:56:23;;;;;;;34.47;20.58;;;3.80;99.90;;;;;;5119740;28;20332;-77
2023/01/26 06:58:49;;;;;;;85.82;25.50;;;3.90;99.90;;;;;;5118242;28;20400;-77
2023/01/26 07:01:18;;;;;;;73.68;24.38;;;4.00;99.90;;;;;;5119714;28;20071;-76
2023/01/26 07:03:43;;;;;;;62.75;23.50;;;4.00;99.90;;;;;;5119614;28;20049;-76
2023/01/26 07:06:12;;;;;;;80.50;24.35;;;4.00;99.90;;;;;;5119289;28;20537;-76
2023/01/26 07:08:37;;;;;;;71.32;24.35;;;4.00;99.90;;;;;;5118194;28;20086;-76
2023/01/26 07:11:03;;;;;;;36.88;20.23;;;4.00;99.90;;;;;;5119325;28;20035;-76
2023/01/26 07:13:29;;;;;;;34.03;19.92;;;4.00;99.90;;;;;;5119436;28;20067;-76
2023/01/26 07:16:13;;;;;;;68.22;22.77;;;4.10;99.90;;;;;;5119465;28;20473;-77
2023/01/26 07:18:38;;;;;;;104.57;26.23;;;4.00;99.90;;;;;;5119362;28;20043;-77
2023/01/26 07:21:10;;;;;;;110.93;25.55;;;4.00;99.90;;;;;;5119299;28;20324;-76
2023/01/26 07:23:36;;;;;;;64.32;22.80;;;3.90;99.90;;;;;;5119252;28;20052;-76
2023/01/26 07:26:02;;;;;;;46.30;20.38;;;3.90;99.90;;;;;;5117828;28;20040;-76
2023/01/26 07:28:29;;;;;;;41.35;20.90;;;3.90;99.90;;;;;;5118485;28;20433;-76
2023/01/26 07:30:58;;;;;;;36.22;18.52;;;3.90;99.90;;;;;;5118884;28;20119;-76
2023/01/26 07:33:24;;;;;;;38.00;19.67;;;4.00;99.90;;;;;;5119012;28;20035;-76
2023/01/26 07:35:56;;;;;;;40.10;19.80;;;4.00;99.90;;;;;;5117554;28;20051;-76
2023/01/26 07:38:23;;;;;;;38.75;18.25;;;4.00;99.90;;;;;;5118902;28;20444;-76
2023/01/26 07:40:49;;;;;;;35.72;18.58;;;4.00;99.90;;;;;;5118958;28;20075;-77
2023/01/26 07:43:15;;;;;;;40.53;18.92;;;3.90;99.90;;;;;;5117712;28;20035;-77
2023/01/26 07:45:52;;;;;;;33.83;16.35;;;4.00;99.90;;;;;;5118980;28;20314;-77
2023/01/26 07:48:19;;;;;;;55.00;18.40;;;4.00;99.90;;;;;;5118799;27;20092;-77
2023/01/26 07:50:48;;;;;;;36.33;17.05;;;4.10;99.90;;;;;;5117657;28;20040;-77
2023/01/26 07:53:18;;;;;;;64.35;17.83;;;4.10;99.90;;;;;;5118726;28;20060;-76
2023/01/26 07:55:44;;;;;;;35.22;16.00;;;4.10;99.90;;;;;;5118029;28;20047;-76
2023/01/26 07:58:10;;;;;;;40.60;16.67;;;4.00;99.90;;;;;;5118697;28;20032;-76
2023/01/26 08:00:37;;;;;;;38.15;16.05;;;4.10;99.90;;;;;;5118116;28;20116;-77
2023/01/26 08:03:02;;;;;;;27.17;14.60;;;4.10;99.90;;;;;;5117337;28;20440;-76
2023/01/26 08:05:28;;;;;;;32.60;15.13;;;4.10;99.90;;;;;;5118197;28;20153;-77
2023/01/26 08:07:58;;;;;;;36.00;15.80;;;4.20;99.90;;;;;;5117122;28;20079;-77
2023/01/26 08:10:24;;;;;;;33.78;15.60;;;4.20;99.90;;;;;;5116969;28;20046;-76
2023/01/26 08:12:50;;;;;;;39.72;16.42;;;4.20;99.90;;;;;;5117349;28;20180;-76
2023/01/26 08:15:15;;;;;;;35.03;15.77;;;4.20;99.90;;;;;;5118303;28;20070;-76
2023/01/26 08:17:41;;;;;;;41.45;14.90;;;4.20;99.90;;;;;;5117207;28;20421;-76
2023/01/26 08:20:08;;;;;;;46.35;13.65;;;4.30;99.90;;;;;;5118253;28;20051;-77
2023/01/26 08:22:33;;;;;;;45.50;13.57;;;4.30;99.90;;;;;;5118300;28;20040;-76
2023/01/26 08:24:59;;;;;;;31.27;12.88;;;4.40;99.90;;;;;;5117529;28;20112;-76
2023/01/26 08:27:24;;;;;;;40.10;13.70;;;4.40;99.90;;;;;;5118100;28;20310;-76
2023/01/26 08:29:50;;;;;;;32.35;12.52;;;4.40;99.90;;;;;;5116262;28;20047;-76
2023/01/26 08:32:16;;;;;;;34.30;13.52;;;4.50;99.90;;;;;;5118108;28;20090;-77
2023/01/26 08:34:41;;;;;;;35.70;12.88;;;4.50;99.90;;;;;;5117006;28;20035;-76
2023/01/26 08:37:07;;;;;;;40.95;12.60;;;4.60;99.90;;;;;;5117174;28;20050;-76
2023/01/26 08:39:33;;;;;;;54.97;13.07;;;4.60;99.90;;;;;;5117575;28;20042;-76
2023/01/26 08:41:58;;;;;;;31.20;11.85;;;4.70;99.90;;;;;;5117896;28;20040;-77
2023/01/26 08:44:24;;;;;;;30.98;12.15;;;4.80;99.90;;;;;;5117795;28;20428;-73
2023/01/26 08:46:50;;;;;;;30.52;12.23;;;4.80;99.90;;;;;;5116930;28;20416;-71
2023/01/26 08:49:15;;;;;;;40.05;13.02;;;4.90;99.90;;;;;;5117639;28;20340;-70
2023/01/26 08:51:41;;;;;;;27.05;13.23;;;5.00;99.90;;;;;;5116557;28;20412;-69
2023/01/26 08:54:07;;;;;;;45.97;12.70;;;5.00;99.90;;;;;;5117551;28;20119;-72
2023/01/26 08:56:33;;;;;;;37.78;12.90;;;5.10;99.90;;;;;;5117273;28;20040;-72
2023/01/26 08:59:00;;;;;;;32.03;13.40;;;5.10;99.90;;;;;;5116917;28;20413;-71
2023/01/26 09:01:25;;;;;;;33.85;12.27;;;5.20;99.90;;;;;;5117177;28;20039;-72
2023/01/26 09:03:52;;;;;;;30.73;11.90;;;5.30;99.90;;;;;;5117467;28;20127;-71
2023/01/26 09:06:18;;;;;;;38.38;12.10;;;5.20;99.90;;;;;;5117395;28;20071;-71
2023/01/26 09:08:44;;;;;;;38.83;13.30;;;5.30;99.90;;;;;;5117359;28;20069;-71
2023/01/26 09:11:11;;;;;;;44.97;13.30;;;5.50;99.90;;;;;;5117231;28;20036;-71
2023/01/26 09:13:37;;;;;;;34.63;12.80;;;5.50;99.90;;;;;;5117316;28;20051;-71
2023/01/26 09:16:05;;;;;;;44.50;14.90;;;5.60;99.90;;;;;;5117057;28;20047;-72
2023/01/26 09:18:31;;;;;;;44.47;14.27;;;5.60;99.90;;;;;;5116011;28;20480;-71
2023/01/26 09:21:05;;;;;;;38.08;14.63;;;5.70;99.90;;;;;;5117232;28;20059;-71
2023/01/26 09:23:32;;;;;;;64.45;17.55;;;5.80;99.90;;;;;;5117110;28;20038;-71
2023/01/26 09:25:57;;;;;;;57.13;17.63;;;5.80;99.90;;;;;;5117263;28;20040;-70
2023/01/26 09:28:23;;;;;;;48.45;17.83;;;5.90;99.90;;;;;;5117153;28;20383;-70
2023/01/26 09:30:49;;;;;;;49.83;18.70;;;5.90;99.90;;;;;;5116695;28;20044;-71
2023/01/26 09:33:14;;;;;;;47.22;19.27;;;6.00;99.90;;;;;;5117061;28;20070;-71
2023/01/26 09:35:40;;;;;;;46.50;21.70;;;6.10;99.90;;;;;;5116578;28;20055;-71
2023/01/26 09:38:06;;;;;;;45.53;20.77;;;6.20;99.90;;;;;;5115774;28;20043;-72
2023/01/26 09:41:09;;;;;;;66.90;24.30;;;6.20;99.90;;;;;;5117070;28;20036;-71
2023/01/26 09:43:43;;;;;;;53.85;22.65;;;6.30;99.90;;;;;;5117060;28;20035;-71
2023/01/26 09:46:23;;;;;;;56.50;22.98;;;6.40;99.90;;;;;;5117195;28;20040;-71
2023/01/26 09:49:05;;;;;;;49.35;23.80;;;6.50;99.90;;;;;;5117798;28;20109;-72
2023/01/26 09:51:43;;;;;;;49.45;23.02;;;6.70;99.90;;;;;;5120982;28;20325;-72
2023/01/26 09:54:39;;;;;;;58.00;22.63;;;6.80;99.90;;;;;;5120668;27;20044;-70
2023/01/26 09:57:16;;;;;;;54.00;25.70;;;6.70;99.90;;;;;;5120981;28;20040;-70
2023/01/26 10:00:18;;;;;;;40.00;22.75;;;6.80;99.90;;;;;;5120511;28;20035;-71
2023/01/26 10:02:57;;;;;;;41.72;23.60;;;7.00;99.90;;;;;;5077905;28;20032;-71
2023/01/26 10:05:45;;;;;;;50.80;24.13;;;7.00;99.90;;;;;;5115923;28;20332;-71
2023/01/26 10:08:17;;;;;;;72.75;26.05;;;7.20;99.90;;;;;;5120766;28;20074;-71
2023/01/26 10:10:52;;;;;;;62.70;25.08;;;7.30;99.90;;;;;;5120560;28;20493;-71
2023/01/26 10:13:20;;;;;;;60.85;24.73;;;7.40;99.90;;;;;;5120693;28;20119;-71
2023/01/26 10:16:02;;;;;;;56.50;25.23;;;7.50;99.90;;;;;;5120556;28;20044;-71
2023/01/26 10:18:49;;;;;;;46.03;24.77;;;7.50;99.90;;;;;;5120480;28;20047;-71
2023/01/26 10:21:19;;;;;;;53.08;26.10;;;7.50;99.90;;;;;;5120497;28;20047;-70
2023/01/26 10:23:48;;;;;;;40.35;25.27;;;7.60;99.90;;;;;;5120194;28;20031;-71
2023/01/26 10:26:17;;;;;;;54.03;27.80;;;7.70;99.90;;;;;;5120321;28;20043;-71
2023/01/26 10:28:44;;;;;;;50.30;26.88;;;7.70;99.90;;;;;;5119901;28;20034;-71
2023/01/26 10:31:16;;;;;;;46.75;26.83;;;7.80;99.90;;;;;;5120228;28;20093;-71
2023/01/26 10:33:54;;;;;;;39.75;24.88;;;7.90;99.90;;;;;;5118979;28;20119;-71
2023/01/26 10:36:20;;;;;;;55.45;28.02;;;7.80;99.90;;;;;;5119861;28;20040;-71
2023/01/26 10:39:04;;;;;;;42.45;28.10;;;7.80;99.90;;;;;;5120071;28;20476;-71
2023/01/26 10:41:29;;;;;;;48.05;29.30;;;7.80;99.90;;;;;;5119836;28;20090;-71
2023/01/26 10:44:01;;;;;;;42.75;27.42;;;8.00;99.90;;;;;;5120013;28;20075;-71
2023/01/26 10:46:30;;;;;;;57.97;28.52;;;8.10;99.90;;;;;;5120019;28;20039;-71
2023/01/26 10:48:59;;;;;;;60.85;27.00;;;8.30;99.90;;;;;;5119949;28;20517;-71
2023/01/26 10:51:31;;;;;;;43.95;24.50;;;8.30;99.90;;;;;;5119496;28;20328;-71
2023/01/26 10:54:18;;;;;;;50.83;26.42;;;8.20;99.90;;;;;;5119918;28;20090;-71
2023/01/26 10:56:47;;;;;;;54.75;26.83;;;8.30;99.90;;;;;;5119755;27;20046;-69
2023/01/26 10:59:38;;;;;;;41.92;26.52;;;8.40;99.90;;;;;;5119219;28;20039;-68
2023/01/26 11:02:13;;;;;;;54.28;25.10;;;8.50;99.90;;;;;;5119719;28;20035;-68
2023/01/26 11:04:39;;;;;;;40.75;24.92;;;8.50;99.90;;;;;;5119128;28;20043;-68
2023/01/26 11:07:38;;;;;;;40.20;23.67;;;8.60;99.90;;;;;;5119203;28;20108;-68
2023/01/26 11:10:17;;;;;;;43.78;24.77;;;8.70;99.90;;;;;;5096393;28;20053;-69
2023/01/26 11:12:43;;;;;;;38.60;21.58;;;8.70;99.90;;;;;;5119476;28;20119;-68
2023/01/26 11:15:21;;;;;;;37.25;22.23;;;8.60;99.90;;;;;;5117736;28;20116;-70
2023/01/26 11:18:15;;;;;;;39.85;22.40;;;8.50;99.90;;;;;;5118095;28;20078;-72
2023/01/26 11:20:57;;;;;;;47.63;23.42;;;8.50;99.90;;;;;;5119133;28;20050;-71
2023/01/26 11:23:35;;;;;;;41.65;20.83;;;8.60;99.90;;;;;;5118325;28;20043;-71
2023/01/26 11:26:24;;;;;;;43.85;21.70;;;8.70;99.90;;;;;;5119255;28;20085;-71
2023/01/26 11:28:58;;;;;;;33.53;21.23;;;8.70;99.90;;;;;;5117758;28;20362;-71
2023/01/26 11:31:51;;;;;;;31.25;19.30;;;8.90;99.90;;;;;;5118764;28;20425;-71
2023/01/26 11:34:22;;;;;;;30.08;17.00;;;8.90;99.90;;;;;;5119054;28;20043;-71
2023/01/26 11:37:25;;;;;;;41.42;14.93;;;8.90;99.90;;;;;;5118610;28;20392;-71
2023/01/26 11:40:13;;;;;;;25.45;14.20;;;9.00;99.90;;;;;;5117622;28;20039;-71
2023/01/26 11:42:49;;;;;;;31.27;15.07;;;9.20;99.90;;;;;;5118877;28;20092;-73
2023/01/26 11:45:45;;;;;;;28.27;12.10;;;9.60;99.90;;;;;;5118522;28;20424;-73
2023/01/26 11:48:30;;;;;;;31.67;10.55;;;9.90;99.90;;;;;;5118875;28;20032;-73
2023/01/26 11:51:08;;;;;;;29.48;11.02;;;10.00;99.90;;;;;;5118705;28;20039;-72
2023/01/26 11:53:36;;;;;;;26.77;11.70;;;9.80;99.90;;;;;;5118725;28;20370;-73
2023/01/26 11:56:13;;;;;;;24.77;12.13;;;9.70;99.90;;;;;;5118563;28;20047;-72
2023/01/26 11:59:11;;;;;;;21.75;13.80;;;9.20;99.90;;;;;;5118326;28;20096;-73
2023/01/26 12:02:08;;;;;;;31.42;17.30;;;9.10;99.90;;;;;;5108938;28;20101;-72
2023/01/26 12:04:44;;;;;;;20.85;15.38;;;9.20;99.90;;;;;;5092887;28;20097;-73
2023/01/26 12:07:18;;;;;;;30.10;18.43;;;9.20;99.90;;;;;;5117160;28;20040;-72
2023/01/26 12:09:47;;;;;;;27.75;19.17;;;9.20;99.90;;;;;;5118384;28;20027;-72
2023/01/26 12:12:39;;;;;;;30.67;20.48;;;9.20;99.90;;;;;;5115596;28;20032;-73
2023/01/26 12:15:14;;;;;;;23.92;18.10;;;9.20;99.90;;;;;;5108620;28;20075;-73
2023/01/26 12:17:55;;;;;;;23.93;19.73;;;9.40;99.90;;;;;;5100459;28;20494;-73
2023/01/26 12:20:32;;;;;;;26.73;19.08;;;9.40;99.90;;;;;;5097596;28;20079;-72
2023/01/26 12:23:04;;;;;;;31.58;19.17;;;9.40;99.90;;;;;;5107121;28;20039;-71
2023/01/26 12:25:40;;;;;;;21.88;17.05;;;9.20;99.90;;;;;;5117090;27;20139;-72
2023/01/26 12:28:27;;;;;;;23.85;16.42;;;9.20;99.90;;;;;;5117500;28;20127;-71
2023/01/26 12:31:11;;;;;;;;;;;9.30;99.90;;;;;;5117310;28;20131;-69
2023/01/26 12:33:38;;;;;;;25.23;14.95;;;9.20;99.90;;;;;;5117813;28;20002;-73
2023/01/26 12:36:28;;;;;;;27.60;14.45;;;9.10;99.90;;;;;;5098119;28;20044;-70
2023/01/26 12:39:21;;;;;;;29.23;12.70;;;9.10;99.90;;;;;;5116142;28;20345;-70
2023/01/26 12:42:20;;;;;;;24.50;11.45;;;8.90;99.90;;;;;;5108176;28;20059;-69
2023/01/26 12:44:55;;;;;;;25.77;11.27;;;8.70;99.90;;;;;;5097241;28;20531;-69
2023/01/26 12:47:35;;;;;;;38.83;13.18;;;8.60;99.90;;;;;;5097234;28;20051;-69
2023/01/26 12:50:26;;;;;;;30.25;13.98;;;8.70;99.90;;;;;;5096962;28;20093;-69
2023/01/26 12:53:17;;;;;;;17.75;13.48;;;8.70;99.90;;;;;;5096462;28;20425;-69
2023/01/26 12:56:08;;;;;;;25.52;14.05;;;8.70;99.90;;;;;;5096748;28;20429;-69
2023/01/26 12:58:38;;;;;;;30.85;12.50;;;8.70;99.90;;;;;;5097264;28;20036;-70
2023/01/26 13:01:05;;;;;;;20.85;11.20;;;8.70;99.90;;;;;;5096485;28;20036;-73
2023/01/26 13:03:50;;;;;;;24.55;12.18;;;8.70;99.90;;;;;;5096075;28;20040;-73
2023/01/26 13:06:19;;;;;;;21.83;12.60;;;8.70;99.90;;;;;;5096971;28;20063;-73
2023/01/26 13:08:56;;;;;;;18.50;10.95;;;8.80;99.90;;;;;;5097585;28;20050;-73
2023/01/26 13:11:44;;;;;;;17.52;10.18;;;8.90;99.90;;;;;;5096959;28;20044;-72
2023/01/26 13:14:33;;;;;;;21.73;11.20;;;8.90;99.90;;;;;;5104900;28;20062;-73
2023/01/26 13:17:14;;;;;;;15.00;10.15;;;8.90;99.90;;;;;;5112685;28;20436;-73
2023/01/26 13:19:43;;;;;;;19.27;10.85;;;9.00;99.90;;;;;;5114182;28;20050;-73
2023/01/26 13:22:18;;;;;;;14.68;6.95;;;9.00;99.90;;;;;;5115205;28;20044;-73
2023/01/26 13:24:55;;;;;;;19.55;7.40;;;8.80;99.90;;;;;;5120340;28;20463;-73
2023/01/26 13:27:33;;;;;;;16.77;6.78;;;8.70;99.90;;;;;;5121547;28;20040;-72
2023/01/26 13:30:00;;;;;;;15.40;7.88;;;8.70;99.90;;;;;;5121113;27;20043;-72
2023/01/26 13:32:25;;;;;;;20.02;6.18;;;8.80;99.90;;;;;;5120331;28;20044;-73
2023/01/26 13:35:00;;;;;;;15.10;5.90;;;8.70;99.90;;;;;;5121051;28;20039;-73
2023/01/26 13:37:35;;;;;;;14.57;6.47;;;8.70;99.90;;;;;;5121275;28;20345;-72
2023/01/26 13:40:08;;;;;;;12.65;5.40;;;8.90;99.90;;;;;;5121680;28;20165;-73